sensor_id;sensor_type;location;lat;lon;timestamp;P1;durP1;ratioP1;P2;durP2;ratioP2
32196;SDS011;18697;42.770;23.400;2023-11-22T00:00:08;9.30;;;5.75;;
32196;SDS011;18697;42.770;23.400;2023-11-22T00:02:35;6.50;;;4.97;;
32196;SDS011;18697;42.770;23.400;2023-11-22T00:05:00;24.50;;;12.77;;
32196;SDS011;18697;42.770;23.400;2023-11-22T00:07:26;23.73;;;13.10;;
32196;SDS011;18697;42.770;23.400;2023-11-22T00:09:54;11.35;;;6.95;;
32196;SDS011;18697;42.770;23.400;2023-11-22T00:12:19;13.48;;;8.25;;
32196;SDS011;18697;42.770;23.400;2023-11-22T00:14:45;17.30;;;9.45;;
32196;SDS011;18697;42.770;23.400;2023-11-22T00:17:11;20.52;;;11.88;;
32196;SDS011;18697;42.770;23.400;2023-11-22T00:19:37;19.38;;;10.38;;
32196;SDS011;18697;42.770;23.400;2023-11-22T00:22:03;17.23;;;9.65;;
32196;SDS011;18697;42.770;23.400;2023-11-22T00:24:36;15.98;;;8.43;;
32196;SDS011;18697;42.770;23.400;2023-11-22T00:27:02;20.42;;;12.57;;
32196;SDS011;18697;42.770;23.400;2023-11-22T00:29:27;20.05;;;12.45;;
32196;SDS011;18697;42.770;23.400;2023-11-22T00:31:53;29.48;;;17.50;;
32196;SDS011;18697;42.770;23.400;2023-11-22T00:34:18;23.80;;;14.98;;
32196;SDS011;18697;42.770;23.400;2023-11-22T00:39:09;24.65;;;14.10;;
32196;SDS011;18697;42.770;23.400;2023-11-22T00:41:38;26.45;;;14.75;;
32196;SDS011;18697;42.770;23.400;2023-11-22T00:44:03;30.98;;;17.23;;
32196;SDS011;18697;42.770;23.400;2023-11-22T00:46:30;42.58;;;24.83;;
32196;SDS011;18697;42.770;23.400;2023-11-22T00:48:56;55.60;;;31.38;;
32196;SDS011;18697;42.770;23.400;2023-11-22T00:51:22;21.55;;;10.43;;
32196;SDS011;18697;42.770;23.400;2023-11-22T00:53:47;20.35;;;13.43;;
32196;SDS011;18697;42.770;23.400;2023-11-22T00:56:14;12.90;;;8.50;;
32196;SDS011;18697;42.770;23.400;2023-11-22T00:58:39;19.17;;;9.93;;
32196;SDS011;18697;42.770;23.400;2023-11-22T01:01:04;12.52;;;8.00;;
32196;SDS011;18697;42.770;23.400;2023-11-22T01:03:30;23.20;;;13.05;;
32196;SDS011;18697;42.770;23.400;2023-11-22T01:05:55;22.02;;;13.27;;
32196;SDS011;18697;42.770;23.400;2023-11-22T01:08:21;24.00;;;13.23;;
32196;SDS011;18697;42.770;23.400;2023-11-22T01:10:47;24.20;;;13.05;;
32196;SDS011;18697;42.770;23.400;2023-11-22T01:13:12;20.35;;;13.38;;
32196;SDS011;18697;42.770;23.400;2023-11-22T01:15:39;23.60;;;13.98;;
32196;SDS011;18697;42.770;23.400;2023-11-22T01:18:05;22.75;;;14.80;;
32196;SDS011;18697;42.770;23.400;2023-11-22T01:20:31;22.63;;;14.40;;
32196;SDS011;18697;42.770;23.400;2023-11-22T01:22:56;20.42;;;13.63;;
32196;SDS011;18697;42.770;23.400;2023-11-22T01:25:21;19.63;;;12.82;;
32196;SDS011;18697;42.770;23.400;2023-11-22T01:27:47;26.27;;;14.55;;
32196;SDS011;18697;42.770;23.400;2023-11-22T01:30:12;21.67;;;12.40;;
32196;SDS011;18697;42.770;23.400;2023-11-22T01:32:38;20.00;;;12.68;;
32196;SDS011;18697;42.770;23.400;2023-11-22T01:35:04;19.75;;;12.15;;
32196;SDS011;18697;42.770;23.400;2023-11-22T01:37:30;18.60;;;11.77;;
32196;SDS011;18697;42.770;23.400;2023-11-22T01:39:57;19.02;;;12.13;;
32196;SDS011;18697;42.770;23.400;2023-11-22T01:42:23;19.35;;;12.57;;
32196;SDS011;18697;42.770;23.400;2023-11-22T01:44:51;17.85;;;11.32;;
32196;SDS011;18697;42.770;23.400;2023-11-22T01:47:17;22.35;;;13.15;;
32196;SDS011;18697;42.770;23.400;2023-11-22T01:49:43;18.35;;;13.15;;
32196;SDS011;18697;42.770;23.400;2023-11-22T01:52:09;21.40;;;12.65;;
32196;SDS011;18697;42.770;23.400;2023-11-22T01:54:35;18.45;;;12.05;;
32196;SDS011;18697;42.770;23.400;2023-11-22T01:57:02;20.83;;;12.60;;
32196;SDS011;18697;42.770;23.400;2023-11-22T01:59:28;16.83;;;12.25;;
32196;SDS011;18697;42.770;23.400;2023-11-22T02:01:54;20.55;;;13.50;;
32196;SDS011;18697;42.770;23.400;2023-11-22T02:04:20;22.55;;;12.20;;
32196;SDS011;18697;42.770;23.400;2023-11-22T02:09:11;22.70;;;12.75;;
32196;SDS011;18697;42.770;23.400;2023-11-22T02:11:40;23.42;;;13.95;;
32196;SDS011;18697;42.770;23.400;2023-11-22T02:14:07;20.05;;;13.55;;
32196;SDS011;18697;42.770;23.400;2023-11-22T02:16:34;19.92;;;13.10;;
32196;SDS011;18697;42.770;23.400;2023-11-22T02:19:00;21.38;;;13.18;;
32196;SDS011;18697;42.770;23.400;2023-11-22T02:21:25;19.45;;;12.48;;
32196;SDS011;18697;42.770;23.400;2023-11-22T02:23:51;17.60;;;12.43;;
32196;SDS011;18697;42.770;23.400;2023-11-22T02:28:43;19.10;;;11.30;;
32196;SDS011;18697;42.770;23.400;2023-11-22T02:31:09;17.63;;;11.25;;
32196;SDS011;18697;42.770;23.400;2023-11-22T02:33:34;20.17;;;11.95;;
32196;SDS011;18697;42.770;23.400;2023-11-22T02:36:00;21.20;;;12.43;;
32196;SDS011;18697;42.770;23.400;2023-11-22T02:38:27;20.20;;;12.43;;
32196;SDS011;18697;42.770;23.400;2023-11-22T02:40:53;17.67;;;11.02;;
32196;SDS011;18697;42.770;23.400;2023-11-22T02:43:19;23.13;;;12.82;;
32196;SDS011;18697;42.770;23.400;2023-11-22T02:45:44;22.95;;;13.25;;
32196;SDS011;18697;42.770;23.400;2023-11-22T02:48:10;18.90;;;11.98;;
32196;SDS011;18697;42.770;23.400;2023-11-22T02:50:35;20.00;;;12.68;;
32196;SDS011;18697;42.770;23.400;2023-11-22T02:53:04;22.20;;;12.25;;
32196;SDS011;18697;42.770;23.400;2023-11-22T02:55:30;18.33;;;12.38;;
32196;SDS011;18697;42.770;23.400;2023-11-22T02:57:55;18.17;;;11.75;;
32196;SDS011;18697;42.770;23.400;2023-11-22T03:00:21;19.80;;;11.75;;
32196;SDS011;18697;42.770;23.400;2023-11-22T03:02:47;15.73;;;10.63;;
32196;SDS011;18697;42.770;23.400;2023-11-22T03:05:18;17.83;;;10.65;;
32196;SDS011;18697;42.770;23.400;2023-11-22T03:07:44;18.50;;;11.20;;
32196;SDS011;18697;42.770;23.400;2023-11-22T03:12:35;23.70;;;12.37;;
32196;SDS011;18697;42.770;23.400;2023-11-22T03:15:01;23.95;;;12.23;;
32196;SDS011;18697;42.770;23.400;2023-11-22T03:17:30;21.58;;;12.65;;
32196;SDS011;18697;42.770;23.400;2023-11-22T03:19:56;18.75;;;13.02;;
32196;SDS011;18697;42.770;23.400;2023-11-22T03:22:22;22.75;;;12.95;;
32196;SDS011;18697;42.770;23.400;2023-11-22T03:24:49;17.50;;;12.13;;
32196;SDS011;18697;42.770;23.400;2023-11-22T03:27:14;17.85;;;11.68;;
32196;SDS011;18697;42.770;23.400;2023-11-22T03:32:05;21.65;;;13.65;;
32196;SDS011;18697;42.770;23.400;2023-11-22T03:34:31;31.90;;;17.13;;
32196;SDS011;18697;42.770;23.400;2023-11-22T03:39:22;23.92;;;14.23;;
32196;SDS011;18697;42.770;23.400;2023-11-22T03:41:47;20.48;;;13.55;;
32196;SDS011;18697;42.770;23.400;2023-11-22T03:44:13;19.27;;;12.95;;
32196;SDS011;18697;42.770;23.400;2023-11-22T03:46:38;19.88;;;13.73;;
32196;SDS011;18697;42.770;23.400;2023-11-22T03:49:04;20.55;;;12.82;;
32196;SDS011;18697;42.770;23.400;2023-11-22T03:51:31;19.90;;;12.23;;
32196;SDS011;18697;42.770;23.400;2023-11-22T03:53:57;17.63;;;11.77;;
32196;SDS011;18697;42.770;23.400;2023-11-22T03:56:23;19.33;;;12.65;;
32196;SDS011;18697;42.770;23.400;2023-11-22T03:58:48;18.50;;;12.13;;
32196;SDS011;18697;42.770;23.400;2023-11-22T04:01:14;21.30;;;13.65;;
32196;SDS011;18697;42.770;23.400;2023-11-22T04:03:41;20.67;;;13.07;;
32196;SDS011;18697;42.770;23.400;2023-11-22T04:06:06;20.75;;;12.02;;
32196;SDS011;18697;42.770;23.400;2023-11-22T04:08:32;17.90;;;12.45;;
32196;SDS011;18697;42.770;23.400;2023-11-22T04:10:57;21.27;;;12.63;;
32196;SDS011;18697;42.770;23.400;2023-11-22T04:13:23;23.70;;;14.60;;
32196;SDS011;18697;42.770;23.400;2023-11-22T04:15:50;22.30;;;13.63;;
32196;SDS011;18697;42.770;23.400;2023-11-22T04:18:15;21.38;;;13.38;;
32196;SDS011;18697;42.770;23.400;2023-11-22T04:20:41;31.17;;;18.90;;
32196;SDS011;18697;42.770;23.400;2023-11-22T04:23:07;26.45;;;15.50;;
32196;SDS011;18697;42.770;23.400;2023-11-22T04:25:35;20.80;;;13.18;;
32196;SDS011;18697;42.770;23.400;2023-11-22T04:28:01;32.90;;;22.42;;
32196;SDS011;18697;42.770;23.400;2023-11-22T04:30:27;22.05;;;15.20;;
32196;SDS011;18697;42.770;23.400;2023-11-22T04:32:52;20.20;;;13.02;;
32196;SDS011;18697;42.770;23.400;2023-11-22T04:35:17;21.30;;;14.45;;
32196;SDS011;18697;42.770;23.400;2023-11-22T04:37:43;21.77;;;16.35;;
32196;SDS011;18697;42.770;23.400;2023-11-22T04:40:08;27.13;;;16.83;;
32196;SDS011;18697;42.770;23.400;2023-11-22T04:42:36;20.95;;;14.93;;
32196;SDS011;18697;42.770;23.400;2023-11-22T04:45:02;20.85;;;15.73;;
32196;SDS011;18697;42.770;23.400;2023-11-22T04:47:31;20.42;;;13.65;;
32196;SDS011;18697;42.770;23.400;2023-11-22T04:49:56;17.15;;;12.30;;
32196;SDS011;18697;42.770;23.400;2023-11-22T04:52:22;20.80;;;13.02;;
32196;SDS011;18697;42.770;23.400;2023-11-22T04:54:47;16.90;;;12.70;;
32196;SDS011;18697;42.770;23.400;2023-11-22T04:57:13;17.08;;;12.40;;
32196;SDS011;18697;42.770;23.400;2023-11-22T04:59:38;16.65;;;12.23;;
32196;SDS011;18697;42.770;23.400;2023-11-22T05:02:03;17.85;;;12.85;;
32196;SDS011;18697;42.770;23.400;2023-11-22T05:04:29;19.83;;;12.90;;
32196;SDS011;18697;42.770;23.400;2023-11-22T05:06:54;19.63;;;13.18;;
32196;SDS011;18697;42.770;23.400;2023-11-22T05:09:21;21.80;;;14.18;;
32196;SDS011;18697;42.770;23.400;2023-11-22T05:11:46;21.00;;;14.02;;
32196;SDS011;18697;42.770;23.400;2023-11-22T05:14:11;22.13;;;16.08;;
32196;SDS011;18697;42.770;23.400;2023-11-22T05:16:38;21.73;;;15.63;;
32196;SDS011;18697;42.770;23.400;2023-11-22T05:19:04;26.23;;;15.00;;
32196;SDS011;18697;42.770;23.400;2023-11-22T05:21:29;21.52;;;14.65;;
32196;SDS011;18697;42.770;23.400;2023-11-22T05:23:54;24.02;;;14.30;;
32196;SDS011;18697;42.770;23.400;2023-11-22T05:26:20;26.95;;;15.55;;
32196;SDS011;18697;42.770;23.400;2023-11-22T05:28:47;22.92;;;14.95;;
32196;SDS011;18697;42.770;23.400;2023-11-22T05:31:12;26.85;;;16.05;;
32196;SDS011;18697;42.770;23.400;2023-11-22T05:33:39;23.90;;;13.70;;
32196;SDS011;18697;42.770;23.400;2023-11-22T05:36:05;22.55;;;15.77;;
32196;SDS011;18697;42.770;23.400;2023-11-22T05:38:31;21.95;;;14.77;;
32196;SDS011;18697;42.770;23.400;2023-11-22T05:40:58;26.67;;;15.95;;
32196;SDS011;18697;42.770;23.400;2023-11-22T05:43:25;26.67;;;15.88;;
32196;SDS011;18697;42.770;23.400;2023-11-22T05:45:52;24.90;;;16.15;;
32196;SDS011;18697;42.770;23.400;2023-11-22T05:48:18;26.52;;;15.52;;
32196;SDS011;18697;42.770;23.400;2023-11-22T05:50:44;23.85;;;16.80;;
32196;SDS011;18697;42.770;23.400;2023-11-22T05:53:10;24.55;;;15.55;;
32196;SDS011;18697;42.770;23.400;2023-11-22T05:55:36;27.88;;;16.08;;
32196;SDS011;18697;42.770;23.400;2023-11-22T05:58:02;24.98;;;16.77;;
32196;SDS011;18697;42.770;23.400;2023-11-22T06:00:28;25.48;;;15.90;;
32196;SDS011;18697;42.770;23.400;2023-11-22T06:02:53;27.42;;;16.42;;
32196;SDS011;18697;42.770;23.400;2023-11-22T06:05:20;23.75;;;16.15;;
32196;SDS011;18697;42.770;23.400;2023-11-22T06:07:46;25.30;;;16.23;;
32196;SDS011;18697;42.770;23.400;2023-11-22T06:10:12;28.38;;;17.33;;
32196;SDS011;18697;42.770;23.400;2023-11-22T06:12:39;28.30;;;17.77;;
32196;SDS011;18697;42.770;23.400;2023-11-22T06:15:05;27.00;;;16.92;;
32196;SDS011;18697;42.770;23.400;2023-11-22T06:17:31;34.67;;;18.52;;
32196;SDS011;18697;42.770;23.400;2023-11-22T06:19:56;33.50;;;19.35;;
32196;SDS011;18697;42.770;23.400;2023-11-22T06:22:22;37.78;;;19.83;;
32196;SDS011;18697;42.770;23.400;2023-11-22T06:24:47;27.95;;;17.90;;
32196;SDS011;18697;42.770;23.400;2023-11-22T06:27:13;30.02;;;19.35;;
32196;SDS011;18697;42.770;23.400;2023-11-22T06:29:40;33.35;;;22.27;;
32196;SDS011;18697;42.770;23.400;2023-11-22T06:32:08;29.92;;;19.88;;
32196;SDS011;18697;42.770;23.400;2023-11-22T06:34:34;26.23;;;16.77;;
32196;SDS011;18697;42.770;23.400;2023-11-22T06:37:01;27.67;;;15.82;;
32196;SDS011;18697;42.770;23.400;2023-11-22T06:39:26;35.40;;;20.63;;
32196;SDS011;18697;42.770;23.400;2023-11-22T06:41:52;58.30;;;27.45;;
32196;SDS011;18697;42.770;23.400;2023-11-22T06:46:42;52.33;;;26.88;;
32196;SDS011;18697;42.770;23.400;2023-11-22T06:49:08;46.75;;;26.38;;
32196;SDS011;18697;42.770;23.400;2023-11-22T06:51:34;51.03;;;29.63;;
32196;SDS011;18697;42.770;23.400;2023-11-22T06:53:59;41.08;;;25.98;;
32196;SDS011;18697;42.770;23.400;2023-11-22T06:56:25;30.23;;;19.33;;
32196;SDS011;18697;42.770;23.400;2023-11-22T07:01:16;30.33;;;18.70;;
32196;SDS011;18697;42.770;23.400;2023-11-22T07:06:07;30.58;;;17.02;;
32196;SDS011;18697;42.770;23.400;2023-11-22T07:08:33;30.52;;;18.42;;
32196;SDS011;18697;42.770;23.400;2023-11-22T07:10:59;27.98;;;18.17;;
32196;SDS011;18697;42.770;23.400;2023-11-22T07:13:25;30.88;;;18.85;;
32196;SDS011;18697;42.770;23.400;2023-11-22T07:15:51;26.67;;;17.33;;
32196;SDS011;18697;42.770;23.400;2023-11-22T07:18:18;31.13;;;21.38;;
32196;SDS011;18697;42.770;23.400;2023-11-22T07:20:44;31.13;;;17.92;;
32196;SDS011;18697;42.770;23.400;2023-11-22T07:23:13;26.20;;;17.45;;
32196;SDS011;18697;42.770;23.400;2023-11-22T07:25:39;31.45;;;18.15;;
32196;SDS011;18697;42.770;23.400;2023-11-22T07:28:05;29.17;;;18.70;;
32196;SDS011;18697;42.770;23.400;2023-11-22T07:30:30;27.92;;;18.08;;
32196;SDS011;18697;42.770;23.400;2023-11-22T07:32:58;30.00;;;19.17;;
32196;SDS011;18697;42.770;23.400;2023-11-22T07:35:26;26.50;;;16.98;;
32196;SDS011;18697;42.770;23.400;2023-11-22T07:37:53;24.67;;;16.27;;
32196;SDS011;18697;42.770;23.400;2023-11-22T07:40:19;24.27;;;16.17;;
32196;SDS011;18697;42.770;23.400;2023-11-22T07:42:46;26.30;;;16.52;;
32196;SDS011;18697;42.770;23.400;2023-11-22T07:45:12;25.90;;;17.33;;
32196;SDS011;18697;42.770;23.400;2023-11-22T07:47:38;27.13;;;18.13;;
32196;SDS011;18697;42.770;23.400;2023-11-22T07:50:09;30.65;;;20.35;;
32196;SDS011;18697;42.770;23.400;2023-11-22T07:52:36;171.25;;;82.70;;
32196;SDS011;18697;42.770;23.400;2023-11-22T07:55:03;144.35;;;71.40;;
32196;SDS011;18697;42.770;23.400;2023-11-22T07:57:32;82.95;;;44.60;;
32196;SDS011;18697;42.770;23.400;2023-11-22T07:59:59;43.35;;;27.25;;
32196;SDS011;18697;42.770;23.400;2023-11-22T08:02:26;37.50;;;23.50;;
32196;SDS011;18697;42.770;23.400;2023-11-22T08:04:52;37.55;;;23.13;;
32196;SDS011;18697;42.770;23.400;2023-11-22T08:07:17;38.30;;;22.75;;
32196;SDS011;18697;42.770;23.400;2023-11-22T08:09:43;45.85;;;28.35;;
32196;SDS011;18697;42.770;23.400;2023-11-22T08:12:09;35.53;;;22.58;;
32196;SDS011;18697;42.770;23.400;2023-11-22T08:14:36;34.38;;;21.92;;
32196;SDS011;18697;42.770;23.400;2023-11-22T08:17:05;30.52;;;18.85;;
32196;SDS011;18697;42.770;23.400;2023-11-22T08:19:31;25.27;;;17.42;;
32196;SDS011;18697;42.770;23.400;2023-11-22T08:21:56;25.13;;;16.83;;
32196;SDS011;18697;42.770;23.400;2023-11-22T08:24:22;31.00;;;17.67;;
32196;SDS011;18697;42.770;23.400;2023-11-22T08:26:47;27.63;;;18.45;;
32196;SDS011;18697;42.770;23.400;2023-11-22T08:29:13;27.73;;;17.38;;
32196;SDS011;18697;42.770;23.400;2023-11-22T08:31:39;26.85;;;17.90;;
32196;SDS011;18697;42.770;23.400;2023-11-22T08:34:05;26.17;;;17.33;;
32196;SDS011;18697;42.770;23.400;2023-11-22T08:36:32;29.65;;;18.67;;
32196;SDS011;18697;42.770;23.400;2023-11-22T08:39:00;27.38;;;18.65;;
32196;SDS011;18697;42.770;23.400;2023-11-22T08:41:27;24.50;;;16.73;;
32196;SDS011;18697;42.770;23.400;2023-11-22T08:43:55;28.58;;;18.73;;
32196;SDS011;18697;42.770;23.400;2023-11-22T08:46:20;30.52;;;21.50;;
32196;SDS011;18697;42.770;23.400;2023-11-22T08:48:46;33.15;;;22.20;;
32196;SDS011;18697;42.770;23.400;2023-11-22T08:51:12;43.60;;;28.45;;
32196;SDS011;18697;42.770;23.400;2023-11-22T08:53:37;35.60;;;22.33;;
32196;SDS011;18697;42.770;23.400;2023-11-22T08:56:03;53.35;;;31.45;;
32196;SDS011;18697;42.770;23.400;2023-11-22T08:58:31;46.17;;;29.27;;
32196;SDS011;18697;42.770;23.400;2023-11-22T09:00:56;45.65;;;29.27;;
32196;SDS011;18697;42.770;23.400;2023-11-22T09:03:23;38.88;;;25.98;;
32196;SDS011;18697;42.770;23.400;2023-11-22T09:05:48;32.00;;;20.70;;
32196;SDS011;18697;42.770;23.400;2023-11-22T09:08:14;34.28;;;22.55;;
32196;SDS011;18697;42.770;23.400;2023-11-22T09:13:07;37.00;;;24.63;;
32196;SDS011;18697;42.770;23.400;2023-11-22T09:15:33;38.03;;;27.13;;
32196;SDS011;18697;42.770;23.400;2023-11-22T09:18:00;48.53;;;32.58;;
32196;SDS011;18697;42.770;23.400;2023-11-22T09:20:26;52.00;;;33.30;;
32196;SDS011;18697;42.770;23.400;2023-11-22T09:22:52;46.60;;;30.60;;
32196;SDS011;18697;42.770;23.400;2023-11-22T09:25:23;34.88;;;24.13;;
32196;SDS011;18697;42.770;23.400;2023-11-22T09:27:50;30.42;;;21.05;;
32196;SDS011;18697;42.770;23.400;2023-11-22T09:30:20;28.17;;;18.85;;
32196;SDS011;18697;42.770;23.400;2023-11-22T09:35:37;26.70;;;17.40;;
32196;SDS011;18697;42.770;23.400;2023-11-22T09:38:04;19.63;;;15.52;;
32196;SDS011;18697;42.770;23.400;2023-11-22T09:40:40;37.58;;;23.95;;
32196;SDS011;18697;42.770;23.400;2023-11-22T09:43:07;48.13;;;28.25;;
32196;SDS011;18697;42.770;23.400;2023-11-22T09:45:32;43.75;;;26.27;;
32196;SDS011;18697;42.770;23.400;2023-11-22T09:47:59;49.55;;;29.85;;
32196;SDS011;18697;42.770;23.400;2023-11-22T09:50:42;34.45;;;22.15;;
32196;SDS011;18697;42.770;23.400;2023-11-22T09:53:34;29.98;;;18.60;;
32196;SDS011;18697;42.770;23.400;2023-11-22T09:56:05;24.75;;;16.70;;
32196;SDS011;18697;42.770;23.400;2023-11-22T09:58:35;24.55;;;15.18;;
32196;SDS011;18697;42.770;23.400;2023-11-22T10:01:03;28.50;;;18.02;;
32196;SDS011;18697;42.770;23.400;2023-11-22T10:03:29;29.92;;;17.33;;
32196;SDS011;18697;42.770;23.400;2023-11-22T10:05:58;25.75;;;16.60;;
32196;SDS011;18697;42.770;23.400;2023-11-22T10:08:25;26.25;;;17.23;;
32196;SDS011;18697;42.770;23.400;2023-11-22T10:10:52;23.25;;;16.05;;
32196;SDS011;18697;42.770;23.400;2023-11-22T10:13:19;24.90;;;16.63;;
32196;SDS011;18697;42.770;23.400;2023-11-22T10:15:49;27.83;;;17.95;;
32196;SDS011;18697;42.770;23.400;2023-11-22T10:18:14;115.88;;;59.17;;
32196;SDS011;18697;42.770;23.400;2023-11-22T10:20:41;33.47;;;21.10;;
32196;SDS011;18697;42.770;23.400;2023-11-22T10:23:11;52.50;;;31.05;;
32196;SDS011;18697;42.770;23.400;2023-11-22T10:25:44;31.15;;;20.42;;
32196;SDS011;18697;42.770;23.400;2023-11-22T10:28:11;33.20;;;19.35;;
32196;SDS011;18697;42.770;23.400;2023-11-22T10:30:37;31.40;;;18.80;;
32196;SDS011;18697;42.770;23.400;2023-11-22T10:33:03;28.25;;;19.05;;
32196;SDS011;18697;42.770;23.400;2023-11-22T10:35:29;29.48;;;20.52;;
32196;SDS011;18697;42.770;23.400;2023-11-22T10:37:54;27.88;;;19.48;;
32196;SDS011;18697;42.770;23.400;2023-11-22T10:40:20;35.00;;;21.05;;
32196;SDS011;18697;42.770;23.400;2023-11-22T10:42:45;48.92;;;38.28;;
32196;SDS011;18697;42.770;23.400;2023-11-22T10:45:17;36.85;;;19.33;;
32196;SDS011;18697;42.770;23.400;2023-11-22T10:47:42;31.95;;;21.33;;
32196;SDS011;18697;42.770;23.400;2023-11-22T10:50:08;37.13;;;26.55;;
32196;SDS011;18697;42.770;23.400;2023-11-22T10:52:35;28.80;;;19.85;;
32196;SDS011;18697;42.770;23.400;2023-11-22T10:55:04;29.77;;;18.95;;
32196;SDS011;18697;42.770;23.400;2023-11-22T10:57:36;29.73;;;19.17;;
32196;SDS011;18697;42.770;23.400;2023-11-22T11:00:14;25.70;;;17.58;;
32196;SDS011;18697;42.770;23.400;2023-11-22T11:02:41;24.23;;;16.95;;
32196;SDS011;18697;42.770;23.400;2023-11-22T11:05:14;23.10;;;17.10;;
32196;SDS011;18697;42.770;23.400;2023-11-22T11:07:44;23.45;;;16.73;;
32196;SDS011;18697;42.770;23.400;2023-11-22T11:10:14;23.15;;;16.15;;
32196;SDS011;18697;42.770;23.400;2023-11-22T11:12:41;24.27;;;17.08;;
32196;SDS011;18697;42.770;23.400;2023-11-22T11:15:08;27.92;;;17.52;;
32196;SDS011;18697;42.770;23.400;2023-11-22T11:17:34;25.70;;;17.40;;
32196;SDS011;18697;42.770;23.400;2023-11-22T11:20:00;27.83;;;18.02;;
32196;SDS011;18697;42.770;23.400;2023-11-22T11:22:29;28.23;;;18.95;;
32196;SDS011;18697;42.770;23.400;2023-11-22T11:25:01;34.08;;;22.55;;
32196;SDS011;18697;42.770;23.400;2023-11-22T11:27:32;36.78;;;22.52;;
32196;SDS011;18697;42.770;23.400;2023-11-22T11:29:58;35.72;;;23.92;;
32196;SDS011;18697;42.770;23.400;2023-11-22T11:32:30;40.92;;;28.20;;
32196;SDS011;18697;42.770;23.400;2023-11-22T11:35:04;36.28;;;24.10;;
32196;SDS011;18697;42.770;23.400;2023-11-22T11:37:33;34.88;;;23.80;;
32196;SDS011;18697;42.770;23.400;2023-11-22T11:39:58;39.30;;;28.65;;
32196;SDS011;18697;42.770;23.400;2023-11-22T11:42:24;37.38;;;25.73;;
32196;SDS011;18697;42.770;23.400;2023-11-22T11:45:10;37.53;;;24.17;;
32196;SDS011;18697;42.770;23.400;2023-11-22T11:47:35;35.83;;;23.17;;
32196;SDS011;18697;42.770;23.400;2023-11-22T11:50:01;38.05;;;23.15;;
32196;SDS011;18697;42.770;23.400;2023-11-22T11:52:27;35.25;;;23.77;;
32196;SDS011;18697;42.770;23.400;2023-11-22T11:54:54;32.08;;;21.90;;
32196;SDS011;18697;42.770;23.400;2023-11-22T11:57:21;27.80;;;20.70;;
32196;SDS011;18697;42.770;23.400;2023-11-22T11:59:46;32.15;;;20.27;;
32196;SDS011;18697;42.770;23.400;2023-11-22T12:02:12;35.40;;;23.05;;
32196;SDS011;18697;42.770;23.400;2023-11-22T12:04:37;32.80;;;23.10;;
32196;SDS011;18697;42.770;23.400;2023-11-22T12:07:07;28.25;;;18.75;;
32196;SDS011;18697;42.770;23.400;2023-11-22T12:09:33;33.13;;;22.13;;
32196;SDS011;18697;42.770;23.400;2023-11-22T12:12:00;27.40;;;19.00;;
32196;SDS011;18697;42.770;23.400;2023-11-22T12:14:27;29.45;;;19.60;;
32196;SDS011;18697;42.770;23.400;2023-11-22T12:16:53;28.08;;;18.95;;
32196;SDS011;18697;42.770;23.400;2023-11-22T12:19:26;28.17;;;19.05;;
32196;SDS011;18697;42.770;23.400;2023-11-22T12:21:53;32.65;;;19.20;;
32196;SDS011;18697;42.770;23.400;2023-11-22T12:24:19;28.00;;;19.88;;
32196;SDS011;18697;42.770;23.400;2023-11-22T12:26:45;27.60;;;19.17;;
32196;SDS011;18697;42.770;23.400;2023-11-22T12:29:14;39.05;;;23.98;;
32196;SDS011;18697;42.770;23.400;2023-11-22T12:31:49;30.33;;;22.13;;
32196;SDS011;18697;42.770;23.400;2023-11-22T12:34:17;27.27;;;19.40;;
32196;SDS011;18697;42.770;23.400;2023-11-22T12:36:42;28.77;;;19.63;;
32196;SDS011;18697;42.770;23.400;2023-11-22T12:39:09;36.65;;;23.95;;
32196;SDS011;18697;42.770;23.400;2023-11-22T12:44:15;30.25;;;19.38;;
32196;SDS011;18697;42.770;23.400;2023-11-22T12:46:59;52.42;;;31.98;;
32196;SDS011;18697;42.770;23.400;2023-11-22T12:51:54;35.80;;;22.88;;
32196;SDS011;18697;42.770;23.400;2023-11-22T12:54:21;44.70;;;27.13;;
32196;SDS011;18697;42.770;23.400;2023-11-22T12:56:51;52.33;;;37.13;;
32196;SDS011;18697;42.770;23.400;2023-11-22T12:59:22;40.58;;;23.83;;
32196;SDS011;18697;42.770;23.400;2023-11-22T13:01:48;32.70;;;21.38;;
32196;SDS011;18697;42.770;23.400;2023-11-22T13:04:14;44.28;;;30.27;;
32196;SDS011;18697;42.770;23.400;2023-11-22T13:06:40;33.88;;;25.08;;
32196;SDS011;18697;42.770;23.400;2023-11-22T13:09:07;26.63;;;18.73;;
32196;SDS011;18697;42.770;23.400;2023-11-22T13:11:32;26.15;;;18.85;;
32196;SDS011;18697;42.770;23.400;2023-11-22T13:13:58;19.85;;;14.20;;
32196;SDS011;18697;42.770;23.400;2023-11-22T13:16:24;19.85;;;13.55;;
32196;SDS011;18697;42.770;23.400;2023-11-22T13:18:49;22.40;;;15.80;;
32196;SDS011;18697;42.770;23.400;2023-11-22T13:21:15;20.60;;;15.25;;
32196;SDS011;18697;42.770;23.400;2023-11-22T13:23:40;21.08;;;13.48;;
32196;SDS011;18697;42.770;23.400;2023-11-22T13:26:05;22.67;;;14.90;;
32196;SDS011;18697;42.770;23.400;2023-11-22T13:28:34;21.35;;;15.43;;
32196;SDS011;18697;42.770;23.400;2023-11-22T13:30:59;23.15;;;17.33;;
32196;SDS011;18697;42.770;23.400;2023-11-22T13:33:25;20.75;;;15.10;;
32196;SDS011;18697;42.770;23.400;2023-11-22T13:38:16;20.00;;;13.52;;
32196;SDS011;18697;42.770;23.400;2023-11-22T13:40:42;25.40;;;15.60;;
32196;SDS011;18697;42.770;23.400;2023-11-22T13:43:11;28.20;;;17.35;;
32196;SDS011;18697;42.770;23.400;2023-11-22T13:45:38;62.42;;;30.48;;
32196;SDS011;18697;42.770;23.400;2023-11-22T13:48:06;50.13;;;28.30;;
32196;SDS011;18697;42.770;23.400;2023-11-22T13:50:34;63.47;;;34.28;;
32196;SDS011;18697;42.770;23.400;2023-11-22T13:53:00;76.53;;;39.28;;
32196;SDS011;18697;42.770;23.400;2023-11-22T13:55:26;67.40;;;39.92;;
32196;SDS011;18697;42.770;23.400;2023-11-22T13:57:53;38.13;;;23.08;;
32196;SDS011;18697;42.770;23.400;2023-11-22T14:00:21;29.30;;;18.60;;
32196;SDS011;18697;42.770;23.400;2023-11-22T14:02:48;29.73;;;19.85;;
32196;SDS011;18697;42.770;23.400;2023-11-22T14:05:16;31.83;;;21.83;;
32196;SDS011;18697;42.770;23.400;2023-11-22T14:07:42;35.10;;;22.30;;
32196;SDS011;18697;42.770;23.400;2023-11-22T14:10:08;34.78;;;22.92;;
32196;SDS011;18697;42.770;23.400;2023-11-22T14:12:35;40.15;;;26.20;;
32196;SDS011;18697;42.770;23.400;2023-11-22T14:15:01;72.00;;;43.88;;
32196;SDS011;18697;42.770;23.400;2023-11-22T14:17:30;69.65;;;41.45;;
32196;SDS011;18697;42.770;23.400;2023-11-22T14:19:56;67.70;;;41.47;;
32196;SDS011;18697;42.770;23.400;2023-11-22T14:22:22;63.28;;;39.40;;
32196;SDS011;18697;42.770;23.400;2023-11-22T14:24:48;65.75;;;37.40;;
32196;SDS011;18697;42.770;23.400;2023-11-22T14:27:15;66.38;;;39.40;;
32196;SDS011;18697;42.770;23.400;2023-11-22T14:29:41;73.40;;;41.72;;
32196;SDS011;18697;42.770;23.400;2023-11-22T14:32:07;60.22;;;35.38;;
32196;SDS011;18697;42.770;23.400;2023-11-22T14:34:33;50.53;;;32.40;;
32196;SDS011;18697;42.770;23.400;2023-11-22T14:36:59;44.60;;;29.63;;
32196;SDS011;18697;42.770;23.400;2023-11-22T14:41:49;62.17;;;37.60;;